Terminal Aerodrome Forecast
Issued by NWS

Home | Current Version | Previous Version | Text Only | Print | Product List | Glossary On
Versions: 1 2 3 4 5 6 7 8 9 10 11 12 13 14 15
000
FTUS41 KBTV 301734
TAFMSS
TAF
KMSS 301734Z 3018/3118 23018G30KT P6SM SCT050
     FM302000 23018G30KT P6SM VCTS SCT040CB BKN070
     FM310000 23011KT P6SM -SHRA OVC040
     FM310300 29011G18KT 5SM -RA BR OVC030
     FM310600 33011KT 3SM -RA BR OVC025
     FM311100 01009KT P6SM OVC035=

USA.gov is the U.S. government's official web portal to all federal, state and local government web resources and services.